createdAt,value
2023-01-11T00:02:14.653Z,8.17
2023-01-11T00:04:41.486Z,8.10
2023-01-11T00:07:08.179Z,8.11
2023-01-11T00:09:34.833Z,8.22
2023-01-11T00:12:01.485Z,8.10
2023-01-11T00:14:28.278Z,8.24
2023-01-11T00:16:55.103Z,8.20
2023-01-11T00:19:21.857Z,8.35
2023-01-11T00:21:49.487Z,8.29
2023-01-11T00:24:16.257Z,8.32
2023-01-11T00:26:42.882Z,8.25
2023-01-11T00:29:09.491Z,8.14
2023-01-11T00:31:36.170Z,8.19
2023-01-11T00:34:02.952Z,8.29
2023-01-11T00:36:29.972Z,8.18
2023-01-11T00:38:56.643Z,8.38
2023-01-11T00:41:42.157Z,8.38
2023-01-11T00:44:28.859Z,8.33
2023-01-11T00:47:15.764Z,8.36
2023-01-11T00:49:43.202Z,8.39
2023-01-11T00:52:10.226Z,8.43
2023-01-11T00:54:41.569Z,8.38
2023-01-11T00:57:08.758Z,8.36
2023-01-11T00:59:37.017Z,8.31
2023-01-11T01:02:04.266Z,8.39
2023-01-11T01:04:31.851Z,8.37
2023-01-11T01:06:58.839Z,8.30
2023-01-11T01:09:25.691Z,8.29
2023-01-11T01:11:52.494Z,8.32
2023-01-11T01:14:29.320Z,8.35
2023-01-11T01:17:02.199Z,8.37
2023-01-11T01:19:30.520Z,8.33
2023-01-11T01:21:58.796Z,8.37
2023-01-11T01:24:28.817Z,8.32
2023-01-11T01:26:56.919Z,8.29
2023-01-11T01:29:24.011Z,8.24
2023-01-11T01:31:51.028Z,8.42
2023-01-11T01:34:18.048Z,8.45
2023-01-11T01:36:44.927Z,8.52
2023-01-11T01:39:12.857Z,8.40
2023-01-11T01:41:39.796Z,8.55
2023-01-11T01:44:44.904Z,8.49
2023-01-11T01:47:12.392Z,8.44
2023-01-11T01:49:40.089Z,8.42
2023-01-11T01:52:07.850Z,8.35
2023-01-11T01:54:39.350Z,8.37
2023-01-11T01:57:12.552Z,8.27
2023-01-11T01:59:41.535Z,8.40
2023-01-11T02:02:08.489Z,8.34
2023-01-11T02:04:44.006Z,8.30
2023-01-11T02:07:17.388Z,8.22
2023-01-11T02:10:15.100Z,8.25
2023-01-11T02:12:52.649Z,8.10
2023-01-11T02:15:22.179Z,8.10
2023-01-11T02:17:58.323Z,8.14
2023-01-11T02:21:00.091Z,8.11
2023-01-11T02:24:00.432Z,8.17
2023-01-11T02:27:06.072Z,8.18
2023-01-11T02:29:49.353Z,8.17
2023-01-11T02:32:40.173Z,8.13
2023-01-11T02:35:27.135Z,8.06
2023-01-11T02:38:24.678Z,7.91
2023-01-11T02:41:01.110Z,8.02
2023-01-11T02:44:05.105Z,8.20
2023-01-11T02:46:49.450Z,8.14
2023-01-11T02:49:33.409Z,8.02
2023-01-11T02:52:12.938Z,8.00
2023-01-11T02:54:43.767Z,8.04
2023-01-11T02:57:12.104Z,8.06
2023-01-11T02:59:40.430Z,8.01
2023-01-11T03:02:07.258Z,7.97
2023-01-11T03:04:36.243Z,8.06
2023-01-11T03:07:27.696Z,7.99
2023-01-11T03:10:06.205Z,8.09
2023-01-11T03:12:51.908Z,8.19
2023-01-11T03:15:33.942Z,8.10
2023-01-11T03:18:23.156Z,8.23
2023-01-11T03:21:10.303Z,8.21
2023-01-11T03:24:10.240Z,8.35
2023-01-11T03:26:56.580Z,8.30
2023-01-11T03:29:35.664Z,8.23
2023-01-11T03:32:29.822Z,8.30
2023-01-11T03:35:16.879Z,8.33
2023-01-11T03:37:54.772Z,8.30
2023-01-11T03:40:30.653Z,8.36
2023-01-11T03:43:13.922Z,8.37
2023-01-11T03:45:50.205Z,8.35
2023-01-11T03:48:22.392Z,8.35
2023-01-11T03:50:52.683Z,8.44
2023-01-11T03:53:22.646Z,8.21
2023-01-11T03:55:54.570Z,8.39
2023-01-11T03:58:21.588Z,8.38
2023-01-11T04:00:49.615Z,8.41
2023-01-11T04:03:16.368Z,8.41
2023-01-11T04:05:46.809Z,8.51
2023-01-11T04:08:13.721Z,8.48
2023-01-11T04:10:40.511Z,8.43
2023-01-11T04:13:07.130Z,8.44
2023-01-11T04:15:34.767Z,8.41
2023-01-11T04:18:05.274Z,8.51
2023-01-11T04:20:34.120Z,8.56
2023-01-11T04:23:00.885Z,8.64
2023-01-11T04:25:27.791Z,8.62
2023-01-11T04:27:54.449Z,8.67
2023-01-11T04:30:21.474Z,8.68
2023-01-11T04:32:48.442Z,8.48
2023-01-11T04:35:15.368Z,8.65
2023-01-11T04:37:42.078Z,8.72
2023-01-11T04:40:09.680Z,8.60
2023-01-11T04:42:36.590Z,8.64
2023-01-11T04:45:06.021Z,8.75
2023-01-11T04:47:33.826Z,8.75
2023-01-11T04:50:00.582Z,8.76
2023-01-11T04:52:27.218Z,8.68
2023-01-11T04:54:54.029Z,8.62
2023-01-11T04:57:21.321Z,8.86
2023-01-11T04:59:49.013Z,8.90
2023-01-11T05:02:16.065Z,8.69
2023-01-11T05:04:43.127Z,8.77
2023-01-11T05:07:10.694Z,8.78
2023-01-11T05:09:37.413Z,8.70
2023-01-11T05:12:04.267Z,8.82
2023-01-11T05:14:30.976Z,8.78
2023-01-11T05:16:57.634Z,8.68
2023-01-11T05:19:24.430Z,8.78
2023-01-11T05:21:51.032Z,8.58
2023-01-11T05:24:17.786Z,8.54
2023-01-11T05:26:46.022Z,8.50
2023-01-11T05:29:16.211Z,8.52
2023-01-11T05:31:43.195Z,8.49
2023-01-11T05:34:13.232Z,8.41
2023-01-11T05:36:40.493Z,8.41
2023-01-11T05:39:07.247Z,8.48
2023-01-11T05:41:34.716Z,8.49
2023-01-11T05:44:19.970Z,8.57
2023-01-11T05:46:46.692Z,8.49
2023-01-11T05:49:13.997Z,8.49
2023-01-11T05:51:42.145Z,8.50
2023-01-11T05:54:14.134Z,8.65
2023-01-11T05:56:42.370Z,8.70
2023-01-11T05:59:09.196Z,8.57
2023-01-11T06:01:35.937Z,8.50
2023-01-11T06:04:02.716Z,8.74
2023-01-11T06:06:29.640Z,8.84
2023-01-11T06:08:56.424Z,8.83
2023-01-11T06:11:23.109Z,8.83
2023-01-11T06:13:49.745Z,8.79
2023-01-11T06:16:19.329Z,9.00
2023-01-11T06:18:51.288Z,8.92
2023-01-11T06:21:18.531Z,8.79
2023-01-11T06:23:47.607Z,8.91
2023-01-11T06:26:16.546Z,8.91
2023-01-11T06:28:44.686Z,8.89
2023-01-11T06:31:11.958Z,9.01
2023-01-11T06:33:38.854Z,9.05
2023-01-11T06:36:08.082Z,9.00
2023-01-11T06:38:35.765Z,8.92
2023-01-11T06:41:04.907Z,9.01
2023-01-11T06:43:32.628Z,8.94
2023-01-11T06:46:00.892Z,9.00
2023-01-11T06:48:28.206Z,8.98
2023-01-11T06:50:57.032Z,9.02
2023-01-11T06:53:27.431Z,9.01
2023-01-11T06:55:56.758Z,9.03
2023-01-11T06:58:24.979Z,9.07
2023-01-11T07:00:53.189Z,9.17
2023-01-11T07:03:24.197Z,9.12
2023-01-11T07:05:56.898Z,9.11
2023-01-11T07:08:25.848Z,9.07
2023-01-11T07:10:53.251Z,9.07
2023-01-11T07:13:20.075Z,9.20
2023-01-11T07:15:49.891Z,9.18
2023-01-11T07:18:18.735Z,9.22
2023-01-11T07:20:45.501Z,9.16
2023-01-11T07:23:12.196Z,9.14
2023-01-11T07:25:39.335Z,9.25
2023-01-11T07:28:08.051Z,9.20
2023-01-11T07:30:55.371Z,9.33
2023-01-11T07:33:24.369Z,9.36
2023-01-11T07:35:51.072Z,9.32
2023-01-11T07:38:17.998Z,9.30
2023-01-11T07:40:44.703Z,9.26
2023-01-11T07:43:14.755Z,9.22
2023-01-11T07:45:49.101Z,9.24
2023-01-11T07:48:20.993Z,9.21
2023-01-11T07:50:47.906Z,9.23
2023-01-11T07:53:14.780Z,9.28
2023-01-11T07:55:41.598Z,9.22
2023-01-11T07:58:12.900Z,9.26
2023-01-11T08:00:43.620Z,9.29
2023-01-11T08:03:10.843Z,9.28
2023-01-11T08:05:38.021Z,9.18
2023-01-11T08:08:05.555Z,9.25
2023-01-11T08:10:33.004Z,9.30
2023-01-11T08:13:18.464Z,9.25
2023-01-11T08:15:45.189Z,9.27
2023-01-11T08:18:12.773Z,9.28
2023-01-11T08:20:40.284Z,9.19
2023-01-11T08:23:09.731Z,9.13
2023-01-11T08:25:36.877Z,9.21
2023-01-11T08:28:05.925Z,9.26
2023-01-11T08:30:33.140Z,9.31
2023-01-11T08:33:04.303Z,9.33
2023-01-11T08:35:32.387Z,9.27
2023-01-11T08:37:59.000Z,9.32
2023-01-11T08:40:25.791Z,9.36
2023-01-11T08:42:59.235Z,9.31
2023-01-11T08:45:26.187Z,9.37
2023-01-11T08:47:53.184Z,9.41
2023-01-11T08:50:21.274Z,9.38
2023-01-11T08:52:51.564Z,9.36
2023-01-11T08:55:21.189Z,9.34
2023-01-11T08:57:47.846Z,9.35
2023-01-11T09:00:15.135Z,9.32
2023-01-11T09:02:42.176Z,9.30
2023-01-11T09:05:09.701Z,9.45
2023-01-11T09:07:37.817Z,9.43
2023-01-11T09:10:05.156Z,9.39
2023-01-11T09:12:32.655Z,9.44
2023-01-11T09:14:59.852Z,9.44
2023-01-11T09:17:26.983Z,9.49
2023-01-11T09:19:53.759Z,9.48
2023-01-11T09:22:20.532Z,9.46
2023-01-11T09:24:47.146Z,9.44
2023-01-11T09:27:14.163Z,9.52
2023-01-11T09:29:41.190Z,9.57
2023-01-11T09:32:07.991Z,9.53
2023-01-11T09:34:35.075Z,9.63
2023-01-11T09:37:03.905Z,9.68
2023-01-11T09:39:30.964Z,9.69
2023-01-11T09:42:15.893Z,9.67
2023-01-11T09:44:56.562Z,9.58
2023-01-11T09:47:34.043Z,9.55
2023-01-11T09:50:06.812Z,9.58
2023-01-11T09:52:39.789Z,9.63
2023-01-11T09:55:14.412Z,9.63
2023-01-11T09:57:54.116Z,9.59
2023-01-11T10:00:37.309Z,9.60
2023-01-11T10:03:22.063Z,9.63
2023-01-11T10:06:00.362Z,9.65
2023-01-11T10:18:31.764Z,9.71
2023-01-11T10:19:18.541Z,9.77
2023-01-11T10:21:55.784Z,9.78
2023-01-11T10:24:31.233Z,9.77
2023-01-11T10:27:03.875Z,9.74
2023-01-11T10:29:48.475Z,9.72
2023-01-11T10:32:34.377Z,9.77
2023-01-11T10:35:20.438Z,9.79
2023-01-11T10:38:04.043Z,9.89
2023-01-11T10:41:01.712Z,9.90
2023-01-11T10:43:31.630Z,9.86
2023-01-11T10:48:46.056Z,9.88
2023-01-11T10:51:34.505Z,9.86
2023-01-11T10:54:14.198Z,10.00
2023-01-11T10:57:18.010Z,10.06
2023-01-11T11:00:13.500Z,10.00
2023-01-11T11:03:04.313Z,9.97
2023-01-11T11:05:50.851Z,9.88
2023-01-11T11:08:27.604Z,9.94
2023-01-11T11:11:23.144Z,9.92
2023-01-11T11:14:23.176Z,9.92
2023-01-11T11:17:16.423Z,9.95
2023-01-11T11:19:43.273Z,9.97
2023-01-11T11:22:12.405Z,10.02
2023-01-11T11:24:43.959Z,10.16
2023-01-11T11:27:50.936Z,10.22
2023-01-11T11:30:41.713Z,10.26
2023-01-11T11:33:16.341Z,10.33
2023-01-11T11:35:46.292Z,10.32
2023-01-11T11:38:22.746Z,10.29
2023-01-11T11:41:04.273Z,10.29
2023-01-11T11:43:33.106Z,10.40
2023-01-11T11:46:05.030Z,10.31
2023-01-11T11:48:34.126Z,10.30
2023-01-11T11:51:03.595Z,10.38
2023-01-11T11:53:33.617Z,10.31
2023-01-11T11:56:06.527Z,10.37
2023-01-11T11:58:33.673Z,10.46
2023-01-11T12:01:00.493Z,10.45
2023-01-11T12:03:32.197Z,10.50
2023-01-11T12:06:04.366Z,10.55
2023-01-11T12:08:34.515Z,10.55
2023-01-11T12:11:04.011Z,10.47
2023-01-11T12:13:33.956Z,10.48
2023-01-11T12:16:04.151Z,10.48
2023-01-11T12:18:42.861Z,10.49
2023-01-11T12:21:09.606Z,10.43
2023-01-11T12:23:36.281Z,10.42
2023-01-11T12:26:16.575Z,10.50
2023-01-11T12:29:06.764Z,10.54
2023-01-11T12:32:03.198Z,10.44
2023-01-11T12:34:59.019Z,10.46
2023-01-11T12:37:52.200Z,10.47
2023-01-11T12:40:25.433Z,10.47
2023-01-11T12:43:26.393Z,10.53
2023-01-11T12:45:59.469Z,10.55
2023-01-11T12:48:40.360Z,10.54
2023-01-11T12:51:37.884Z,10.56
2023-01-11T12:54:04.453Z,10.51
2023-01-11T12:57:11.574Z,10.48
2023-01-11T13:00:08.514Z,10.51
2023-01-11T13:02:46.656Z,10.48
2023-01-11T13:05:26.684Z,10.51
2023-01-11T13:08:07.187Z,10.57
2023-01-11T13:11:11.935Z,10.58
2023-01-11T13:13:38.523Z,10.62
2023-01-11T13:16:17.609Z,10.69
2023-01-11T13:18:50.436Z,10.78
2023-01-11T13:21:35.455Z,10.79
2023-01-11T13:24:09.978Z,10.77
2023-01-11T13:26:41.017Z,10.82
2023-01-11T13:29:15.736Z,10.83
2023-01-11T13:31:45.990Z,10.92
2023-01-11T13:34:34.743Z,10.97
2023-01-11T13:37:36.688Z,10.99
2023-01-11T13:40:09.892Z,11.05
2023-01-11T13:42:48.492Z,11.08
2023-01-11T13:45:35.151Z,11.09
2023-01-11T13:48:12.019Z,11.12
2023-01-11T13:50:44.339Z,11.16
2023-01-11T13:53:11.092Z,11.20
2023-01-11T13:56:06.275Z,11.22
2023-01-11T13:58:48.887Z,11.27
2023-01-11T14:01:20.287Z,11.31
2023-01-11T14:03:53.215Z,11.31
2023-01-11T14:06:45.252Z,11.25
2023-01-11T14:09:43.327Z,11.23
2023-01-11T14:12:30.572Z,11.27
2023-01-11T14:15:31.544Z,11.26
2023-01-11T14:18:10.026Z,11.29
2023-01-11T14:20:42.745Z,11.22
2023-01-11T14:23:13.118Z,11.32
2023-01-11T14:26:02.248Z,11.21
2023-01-11T14:28:53.646Z,11.30
2023-01-11T14:31:37.848Z,11.37
2023-01-11T14:34:26.557Z,11.34
2023-01-11T14:37:17.436Z,11.33
2023-01-11T14:40:05.805Z,11.27
2023-01-11T14:42:53.765Z,11.22
2023-01-11T14:45:36.945Z,11.24
2023-01-11T14:48:45.451Z,11.20
2023-01-11T14:51:32.500Z,11.13
2023-01-11T14:54:16.758Z,11.14
2023-01-11T14:56:43.392Z,11.17
2023-01-11T14:59:29.021Z,11.09
2023-01-11T15:02:04.704Z,11.16
2023-01-11T15:04:37.008Z,11.19
2023-01-11T15:07:24.135Z,11.14
2023-01-11T15:09:53.609Z,11.10
2023-01-11T15:12:37.115Z,11.10
2023-01-11T15:15:07.152Z,11.13
2023-01-11T15:17:53.405Z,11.09
2023-01-11T15:20:21.909Z,11.07
2023-01-11T15:23:16.742Z,11.09
2023-01-11T15:25:49.272Z,11.04
2023-01-11T15:28:54.323Z,10.93
2023-01-11T15:31:44.037Z,10.94
2023-01-11T15:34:24.814Z,10.94
2023-01-11T15:36:57.384Z,10.92
2023-01-11T15:39:46.466Z,10.87
2023-01-11T15:42:16.062Z,10.82
2023-01-11T15:44:48.822Z,10.86
2023-01-11T15:47:52.775Z,10.86
2023-01-11T15:50:41.391Z,10.87
2023-01-11T15:53:28.606Z,10.82
2023-01-11T15:56:34.968Z,10.82
2023-01-11T15:59:37.325Z,10.77
2023-01-11T16:02:27.634Z,10.76
2023-01-11T16:05:11.310Z,10.67
2023-01-11T16:07:43.349Z,10.70
2023-01-11T16:10:30.113Z,10.79
2023-01-11T16:13:10.312Z,10.80
2023-01-11T16:15:43.120Z,10.71
2023-01-11T16:18:25.008Z,10.77
2023-01-11T16:21:02.702Z,10.79
2023-01-11T16:23:33.943Z,10.70
2023-01-11T16:26:01.478Z,10.68
2023-01-11T16:28:28.548Z,10.68
2023-01-11T16:31:04.759Z,10.60
2023-01-11T16:33:34.473Z,10.72
2023-01-11T16:36:10.486Z,10.65
2023-01-11T16:38:55.803Z,10.71
2023-01-11T16:41:25.735Z,10.64
2023-01-11T16:44:02.225Z,10.64
2023-01-11T16:46:56.458Z,10.63
2023-01-11T16:49:23.915Z,10.64
2023-01-11T16:51:50.725Z,10.56
2023-01-11T16:54:25.187Z,10.57
2023-01-11T16:56:52.516Z,10.59
2023-01-11T16:59:26.375Z,10.52
2023-01-11T17:01:59.318Z,10.48
2023-01-11T17:04:38.032Z,10.40
2023-01-11T17:07:26.385Z,10.36
2023-01-11T17:09:53.466Z,10.33
2023-01-11T17:12:26.041Z,10.32
2023-01-11T17:15:07.597Z,10.31
2023-01-11T17:17:36.856Z,10.26
2023-01-11T17:20:10.602Z,10.20
2023-01-11T17:22:37.782Z,10.14
2023-01-11T17:25:15.856Z,10.19
2023-01-11T17:27:50.872Z,10.20
2023-01-11T17:30:21.533Z,10.19
2023-01-11T17:32:53.756Z,10.20
2023-01-11T17:35:23.347Z,10.19
2023-01-11T17:37:52.290Z,10.20
2023-01-11T17:40:28.223Z,10.10
2023-01-11T17:43:18.937Z,10.09
2023-01-11T17:45:50.999Z,10.11
2023-01-11T17:48:20.448Z,10.17
2023-01-11T17:50:54.544Z,10.09
2023-01-11T17:53:32.460Z,10.07
2023-01-11T17:56:05.247Z,10.05
2023-01-11T17:58:34.307Z,10.10
2023-01-11T18:01:04.011Z,10.10
2023-01-11T18:03:38.800Z,10.05
2023-01-11T18:06:41.518Z,9.95
2023-01-11T18:09:22.166Z,9.98
2023-01-11T18:11:51.404Z,9.90
2023-01-11T18:14:34.178Z,9.86
2023-01-11T18:17:26.024Z,9.82
2023-01-11T18:19:53.984Z,9.77
2023-01-11T18:22:32.078Z,9.71
2023-01-11T18:25:04.258Z,9.67
2023-01-11T18:27:35.367Z,9.62
2023-01-11T18:30:08.749Z,9.61
2023-01-11T18:32:43.044Z,9.64
2023-01-11T18:35:19.865Z,9.66
2023-01-11T18:37:48.312Z,9.71
2023-01-11T18:40:17.614Z,9.70
2023-01-11T18:42:51.207Z,9.64
2023-01-11T18:45:18.743Z,9.59
2023-01-11T18:47:46.351Z,9.61
2023-01-11T18:50:13.681Z,9.61
2023-01-11T18:52:40.830Z,9.62
2023-01-11T18:55:11.365Z,9.59
2023-01-11T18:57:37.987Z,9.52
2023-01-11T19:00:05.637Z,9.56
2023-01-11T19:02:45.720Z,9.46
2023-01-11T19:05:14.506Z,9.40
2023-01-11T19:07:41.631Z,9.41
2023-01-11T19:10:09.528Z,9.38
2023-01-11T19:12:36.532Z,9.44
2023-01-11T19:15:03.325Z,9.44
2023-01-11T19:17:32.079Z,9.51
2023-01-11T19:19:59.151Z,9.57
2023-01-11T19:22:26.805Z,9.54
2023-01-11T19:24:55.126Z,9.47
2023-01-11T19:27:23.737Z,9.49
2023-01-11T19:29:53.960Z,9.56
2023-01-11T19:32:25.287Z,9.57
2023-01-11T19:34:59.001Z,9.65
2023-01-11T19:37:30.711Z,9.69
2023-01-11T19:39:57.872Z,9.75
2023-01-11T19:42:24.742Z,9.79
2023-01-11T19:44:51.607Z,9.73
2023-01-11T19:47:18.799Z,9.71
2023-01-11T19:49:46.156Z,9.69
2023-01-11T19:52:18.900Z,9.59
2023-01-11T19:54:46.752Z,9.53
2023-01-11T19:57:18.879Z,9.59
2023-01-11T19:59:49.746Z,9.66
2023-01-11T20:02:19.070Z,9.56
2023-01-11T20:04:46.438Z,9.54
2023-01-11T20:07:15.278Z,9.50
2023-01-11T20:09:43.116Z,9.57
2023-01-11T20:12:12.110Z,9.48
2023-01-11T20:14:40.564Z,9.50
2023-01-11T20:17:07.877Z,9.57
2023-01-11T20:19:34.989Z,9.49
2023-01-11T20:22:01.812Z,9.37
2023-01-11T20:24:29.704Z,9.36
2023-01-11T20:26:59.347Z,9.34
2023-01-11T20:29:26.625Z,9.19
2023-01-11T20:31:53.855Z,9.06
2023-01-11T20:34:21.127Z,8.99
2023-01-11T20:36:48.907Z,8.95
2023-01-11T20:39:17.420Z,8.88
2023-01-11T20:41:47.271Z,8.83
2023-01-11T20:44:17.984Z,8.77
2023-01-11T20:46:47.803Z,8.72
2023-01-11T20:49:15.488Z,8.69
2023-01-11T20:51:42.843Z,8.66
2023-01-11T20:54:10.255Z,8.56
2023-01-11T20:56:38.553Z,8.53
2023-01-11T20:59:07.635Z,8.47
2023-01-11T21:01:36.293Z,8.49
2023-01-11T21:04:08.954Z,8.48
2023-01-11T21:06:38.499Z,8.52
2023-01-11T21:09:07.204Z,8.51
2023-01-11T21:11:34.442Z,8.51
2023-01-11T21:14:04.093Z,8.51
2023-01-11T21:16:31.492Z,8.50
2023-01-11T21:19:00.802Z,8.46
2023-01-11T21:21:29.844Z,8.46
2023-01-11T21:23:59.635Z,8.40
2023-01-11T21:26:27.644Z,8.40
2023-01-11T21:28:59.982Z,8.40
2023-01-11T21:31:28.600Z,8.39
2023-01-11T21:33:55.862Z,8.45
2023-01-11T21:36:27.765Z,8.48
2023-01-11T21:38:56.693Z,8.47
2023-01-11T21:41:44.599Z,8.48
2023-01-11T21:44:12.923Z,8.50
2023-01-11T21:46:40.501Z,8.52
2023-01-11T21:49:07.414Z,8.55
2023-01-11T21:51:34.568Z,8.61
2023-01-11T21:54:06.017Z,8.54
2023-01-11T21:56:33.355Z,8.51
2023-01-11T21:59:00.375Z,8.53
2023-01-11T22:01:27.793Z,8.51
2023-01-11T22:03:54.661Z,8.54
2023-01-11T22:06:21.487Z,8.51
2023-01-11T22:08:48.375Z,8.54
2023-01-11T22:11:16.956Z,8.61
2023-01-11T22:13:43.855Z,8.54
2023-01-11T22:16:13.228Z,8.54
2023-01-11T22:18:41.204Z,8.53
2023-01-11T22:21:16.959Z,8.62
2023-01-11T22:23:46.064Z,8.63
2023-01-11T22:26:16.243Z,8.59
2023-01-11T22:29:02.203Z,8.67
2023-01-11T22:31:30.037Z,8.62
2023-01-11T22:33:57.649Z,8.60
2023-01-11T22:36:25.649Z,8.55
2023-01-11T22:38:52.820Z,8.62
2023-01-11T22:41:20.187Z,8.63
2023-01-11T22:43:47.268Z,8.68
2023-01-11T22:46:16.846Z,8.61
2023-01-11T22:48:44.629Z,8.62
2023-01-11T22:51:11.814Z,8.57
2023-01-11T22:53:43.512Z,8.54
2023-01-11T22:56:11.395Z,8.51
2023-01-11T22:58:38.509Z,8.47
2023-01-11T23:01:11.754Z,8.41
2023-01-11T23:03:39.092Z,8.37
2023-01-11T23:06:06.784Z,8.32
2023-01-11T23:08:41.658Z,8.37
2023-01-11T23:11:36.177Z,8.32
2023-01-11T23:14:04.987Z,8.27
2023-01-11T23:16:31.917Z,8.30
2023-01-11T23:18:58.940Z,8.29
2023-01-11T23:21:25.622Z,8.27
2023-01-11T23:23:53.288Z,8.25
2023-01-11T23:26:21.037Z,8.19
2023-01-11T23:28:49.991Z,8.20
2023-01-11T23:31:19.925Z,8.29
2023-01-11T23:33:52.076Z,8.37
2023-01-11T23:36:20.565Z,8.40
2023-01-11T23:38:47.900Z,8.36
2023-01-11T23:41:36.478Z,8.31
2023-01-11T23:44:09.216Z,8.36
2023-01-11T23:46:55.970Z,8.39
2023-01-11T23:49:26.973Z,8.35
2023-01-11T23:51:55.039Z,8.31
2023-01-11T23:54:22.532Z,8.36
2023-01-11T23:56:49.412Z,8.37
2023-01-11T23:59:16.120Z,8.37
